Time;durP1;ratioP1;P1;durP2;ratioP2;P2;SDS_P1;SDS_P2;PMS_P1;PMS_P2;Temp;Humidity;BMP_temperature;BMP_pressure;BME280_temperature;BME280_humidity;BME280_pressure;Samples;Min_cycle;Max_cycle;Signal;HPM_P1;HPM_P2
2022/08/19 00:01:59;;;;;;;23.37;16.13;;;;;;;;;;5042662;28;20284;-65
2022/08/19 00:04:26;;;;;;;20.23;15.68;;;;;;;;;;5051536;28;20025;-65
2022/08/19 00:06:52;;;;;;;20.75;16.05;;;;;;;;;;5052381;28;20017;-65
2022/08/19 00:09:18;;;;;;;20.63;16.45;;;;;;;;;;5052410;28;20021;-65
2022/08/19 00:11:44;;;;;;;21.83;16.23;;;;;;;;;;5050823;28;20382;-65
2022/08/19 00:14:10;;;;;;;22.25;16.98;;;;;;;;;;5048843;28;20013;-65
2022/08/19 00:16:36;;;;;;;22.02;16.08;;;;;;;;;;5048362;28;20280;-64
2022/08/19 00:19:02;;;;;;;21.02;16.30;;;;;;;;;;5051493;28;20017;-64
2022/08/19 00:21:27;;;;;;;22.30;16.33;;;;;;;;;;5052098;28;20150;-65
2022/08/19 00:23:53;;;;;;;20.07;16.83;;;;;;;;;;5052482;28;20054;-65
2022/08/19 00:26:18;;;;;;;21.80;17.10;;;;;;;;;;5050964;28;20098;-65
2022/08/19 00:28:43;;;;;;;26.13;17.30;;;;;;;;;;5050195;28;20059;-65
2022/08/19 00:31:09;;;;;;;26.45;16.88;;;;;;;;;;5045653;28;20267;-65
2022/08/19 00:33:34;;;;;;;25.42;16.50;;;;;;;;;;5045894;28;20020;-65
2022/08/19 00:36:00;;;;;;;21.08;16.60;;;;;;;;;;5050323;28;20557;-64
2022/08/19 00:38:26;;;;;;;22.52;16.65;;;;;;;;;;5050297;28;20040;-64
2022/08/19 00:40:51;;;;;;;24.38;16.85;;;;;;;;;;5050862;28;20021;-64
2022/08/19 00:43:21;;;;;;;24.58;16.73;;;;;;;;;;5049294;28;20389;-65
2022/08/19 00:45:47;;;;;;;22.75;17.38;;;;;;;;;;5046123;28;20388;-65
2022/08/19 00:48:12;;;;;;;25.20;18.20;;;;;;;;;;5037057;28;20481;-65
2022/08/19 00:50:40;;;;;;;21.55;16.67;;;;;;;;;;5051984;28;20115;-63
2022/08/19 00:53:05;;;;;;;24.42;17.10;;;;;;;;;;5050072;28;20043;-66
2022/08/19 00:55:32;;;;;;;21.55;16.80;;;;;;;;;;5039776;28;20505;-65
2022/08/19 00:58:03;;;;;;;23.80;16.98;;;;;;;;;;5047325;28;20094;-65
2022/08/19 01:00:28;;;;;;;25.98;17.05;;;;;;;;;;5048490;28;20021;-65
2022/08/19 01:02:54;;;;;;;21.10;17.20;;;;;;;;;;5050640;28;20059;-65
2022/08/19 01:05:24;;;;;;;24.55;17.38;;;;;;;;;;5051051;28;20067;-65
2022/08/19 01:07:50;;;;;;;20.80;16.35;;;;;;;;;;5049429;28;20032;-65
2022/08/19 01:10:18;;;;;;;26.48;18.25;;;;;;;;;;5048956;28;20033;-65
2022/08/19 01:12:44;;;;;;;20.65;16.63;;;;;;;;;;5048552;28;20031;-65
2022/08/19 01:15:11;;;;;;;22.75;17.20;;;;;;;;;;5049435;28;20086;-65
2022/08/19 01:17:37;;;;;;;23.95;16.98;;;;;;;;;;5049647;28;20690;-65
2022/08/19 01:20:03;;;;;;;22.88;17.73;;;;;;;;;;5048731;28;20031;-65
2022/08/19 01:22:34;;;;;;;25.00;17.73;;;;;;;;;;5045752;28;20082;-65
2022/08/19 01:25:00;;;;;;;24.73;16.83;;;;;;;;;;5050647;28;20013;-65
2022/08/19 01:27:26;;;;;;;26.15;16.55;;;;;;;;;;5044109;28;20036;-65
2022/08/19 01:29:51;;;;;;;20.85;16.48;;;;;;;;;;5047784;28;20017;-65
2022/08/19 01:32:17;;;;;;;25.13;18.13;;;;;;;;;;5050725;28;20025;-65
2022/08/19 01:34:46;;;;;;;25.15;17.55;;;;;;;;;;5050696;28;20752;-65
2022/08/19 01:37:12;;;;;;;28.58;18.45;;;;;;;;;;5050665;28;20025;-65
2022/08/19 01:39:39;;;;;;;22.85;17.70;;;;;;;;;;5050665;28;20032;-65
2022/08/19 01:42:06;;;;;;;24.33;17.88;;;;;;;;;;5048623;28;20032;-65
2022/08/19 01:44:31;;;;;;;26.67;18.35;;;;;;;;;;5050682;28;20481;-65
2022/08/19 01:46:56;;;;;;;22.13;16.67;;;;;;;;;;5050523;28;20037;-65
2022/08/19 01:49:22;;;;;;;25.33;18.90;;;;;;;;;;5050667;28;20262;-65
2022/08/19 01:51:49;;;;;;;26.27;18.80;;;;;;;;;;5050318;28;20024;-65
2022/08/19 01:54:15;;;;;;;24.67;18.10;;;;;;;;;;5050552;28;20104;-65
2022/08/19 01:56:40;;;;;;;28.52;18.55;;;;;;;;;;5048255;28;20025;-65
2022/08/19 01:59:08;;;;;;;25.13;18.43;;;;;;;;;;5050247;28;20078;-65
2022/08/19 02:01:34;;;;;;;25.90;18.70;;;;;;;;;;5050264;28;20255;-64
2022/08/19 02:04:00;;;;;;;27.90;19.40;;;;;;;;;;5050466;28;20013;-65
2022/08/19 02:06:25;;;;;;;27.50;18.30;;;;;;;;;;5049865;28;20078;-65
2022/08/19 02:08:50;;;;;;;26.05;18.63;;;;;;;;;;5048315;28;20024;-65
2022/08/19 02:11:26;;;;;;;24.10;17.60;;;;;;;;;;5045526;28;20060;-64
2022/08/19 02:13:52;;;;;;;28.08;18.25;;;;;;;;;;5047953;28;20032;-65
2022/08/19 02:16:18;;;;;;;25.77;18.55;;;;;;;;;;5048161;28;20025;-64
2022/08/19 02:18:43;;;;;;;26.17;18.23;;;;;;;;;;5049005;28;20029;-64
2022/08/19 02:21:09;;;;;;;26.23;17.73;;;;;;;;;;5047261;28;20024;-64
2022/08/19 02:23:34;;;;;;;29.00;19.70;;;;;;;;;;5043437;28;20373;-65
2022/08/19 02:25:59;;;;;;;25.83;19.20;;;;;;;;;;5047560;28;20283;-65
2022/08/19 02:28:24;;;;;;;24.63;18.33;;;;;;;;;;5031254;28;20190;-65
2022/08/19 02:30:49;;;;;;;22.37;17.73;;;;;;;;;;5049044;28;20282;-65
2022/08/19 02:33:15;;;;;;;29.27;18.33;;;;;;;;;;5048062;28;20272;-65
2022/08/19 02:35:41;;;;;;;28.23;18.60;;;;;;;;;;5049681;28;20313;-65
2022/08/19 02:40:55;;;;;;;24.05;17.52;;;;;;;;;;5050994;28;20044;-65
2022/08/19 02:43:21;;;;;;;23.98;17.25;;;;;;;;;;5051690;28;20027;-65
2022/08/19 02:45:47;;;;;;;25.25;17.02;;;;;;;;;;5052577;28;20032;-65
2022/08/19 02:48:13;;;;;;;23.40;17.33;;;;;;;;;;5052894;28;20496;-65
2022/08/19 02:50:39;;;;;;;26.88;18.05;;;;;;;;;;5051675;28;20029;-65
2022/08/19 02:53:05;;;;;;;26.30;18.58;;;;;;;;;;5052347;28;20063;-64
2022/08/19 02:55:30;;;;;;;23.98;17.13;;;;;;;;;;5050896;28;20118;-65
2022/08/19 02:57:56;;;;;;;26.03;18.77;;;;;;;;;;5051400;28;20047;-64
2022/08/19 03:00:23;;;;;;;26.63;18.17;;;;;;;;;;5047924;28;20679;-64
2022/08/19 03:02:48;;;;;;;23.85;18.33;;;;;;;;;;5044628;28;20052;-64
2022/08/19 03:05:13;;;;;;;24.67;17.57;;;;;;;;;;5051539;28;20290;-65
2022/08/19 03:07:39;;;;;;;23.98;16.83;;;;;;;;;;5051223;28;20028;-65
2022/08/19 03:10:04;;;;;;;26.17;18.20;;;;;;;;;;5044099;28;20100;-65
2022/08/19 03:12:30;;;;;;;28.02;18.42;;;;;;;;;;5052433;28;20263;-65
2022/08/19 03:14:55;;;;;;;26.35;18.33;;;;;;;;;;5048266;28;20029;-65
2022/08/19 03:17:20;;;;;;;24.77;18.00;;;;;;;;;;5051034;28;20025;-65
2022/08/19 03:19:46;;;;;;;25.97;18.50;;;;;;;;;;5033630;28;20012;-64
2022/08/19 03:22:11;;;;;;;25.10;17.43;;;;;;;;;;5047050;28;20268;-64
2022/08/19 03:24:37;;;;;;;25.10;17.80;;;;;;;;;;5051379;28;20271;-64
2022/08/19 03:27:04;;;;;;;25.08;18.88;;;;;;;;;;5050736;28;20385;-64
2022/08/19 03:29:31;;;;;;;26.73;18.27;;;;;;;;;;5051728;28;20044;-64
2022/08/19 03:31:57;;;;;;;25.30;16.95;;;;;;;;;;5051888;28;20028;-64
2022/08/19 03:34:26;;;;;;;24.75;18.08;;;;;;;;;;5050982;28;20029;-64
2022/08/19 03:36:51;;;;;;;22.70;16.92;;;;;;;;;;5051418;28;20021;-64
2022/08/19 03:39:17;;;;;;;25.27;18.20;;;;;;;;;;5051639;28;20023;-64
2022/08/19 03:41:43;;;;;;;26.08;18.02;;;;;;;;;;5047262;28;20013;-64
2022/08/19 03:44:08;;;;;;;28.42;16.40;;;;;;;;;;5051481;28;20020;-64
2022/08/19 03:46:34;;;;;;;27.27;18.30;;;;;;;;;;5050806;28;20028;-64
2022/08/19 03:49:01;;;;;;;29.27;18.63;;;;;;;;;;5052486;28;20477;-64
2022/08/19 03:51:28;;;;;;;23.75;17.83;;;;;;;;;;5050379;28;20389;-64
2022/08/19 03:53:54;;;;;;;24.75;17.58;;;;;;;;;;5051661;28;20412;-64
2022/08/19 03:56:19;;;;;;;25.80;18.15;;;;;;;;;;5049898;28;20111;-64
2022/08/19 03:58:45;;;;;;;23.55;17.42;;;;;;;;;;5051697;28;20024;-64
2022/08/19 04:01:11;;;;;;;29.67;18.65;;;;;;;;;;5047164;28;20017;-64
2022/08/19 04:03:36;;;;;;;24.60;17.67;;;;;;;;;;5050963;28;20488;-64
2022/08/19 04:06:12;;;;;;;31.55;17.23;;;;;;;;;;5051044;28;20025;-64
2022/08/19 04:08:37;;;;;;;30.15;17.60;;;;;;;;;;5049276;28;20031;-64
2022/08/19 04:11:06;;;;;;;24.83;16.95;;;;;;;;;;5049096;28;20092;-64
2022/08/19 04:13:31;;;;;;;28.30;18.85;;;;;;;;;;5051061;28;20385;-64
2022/08/19 04:15:56;;;;;;;25.67;17.67;;;;;;;;;;5048848;28;20028;-64
2022/08/19 04:18:21;;;;;;;32.90;18.93;;;;;;;;;;5050456;28;20035;-64
2022/08/19 04:20:47;;;;;;;23.80;17.70;;;;;;;;;;5051089;28;20766;-64
2022/08/19 04:23:13;;;;;;;25.13;18.98;;;;;;;;;;5049012;28;20092;-64
2022/08/19 04:25:39;;;;;;;33.83;18.52;;;;;;;;;;5050323;28;20372;-64
2022/08/19 04:28:04;;;;;;;25.50;17.50;;;;;;;;;;5051627;28;20029;-63
2022/08/19 04:30:29;;;;;;;28.27;19.33;;;;;;;;;;5050872;28;20039;-65
2022/08/19 04:32:55;;;;;;;27.03;18.73;;;;;;;;;;5050687;28;20056;-64
2022/08/19 04:35:23;;;;;;;27.00;18.07;;;;;;;;;;5047842;28;20028;-65
2022/08/19 04:37:48;;;;;;;26.13;18.50;;;;;;;;;;5046936;28;20341;-64
2022/08/19 04:42:57;;;;;;;30.20;18.40;;;;;;;;;;5049208;28;20027;-64
2022/08/19 04:45:22;;;;;;;30.40;19.08;;;;;;;;;;5050299;28;20398;-64
2022/08/19 04:47:47;;;;;;;23.87;17.33;;;;;;;;;;5050706;28;20032;-64
2022/08/19 04:50:12;;;;;;;33.13;19.83;;;;;;;;;;5049482;28;20801;-64
2022/08/19 04:52:41;;;;;;;25.00;18.15;;;;;;;;;;5049467;28;20322;-64
2022/08/19 04:55:07;;;;;;;27.75;18.38;;;;;;;;;;5049622;28;20485;-64
2022/08/19 04:57:32;;;;;;;33.92;19.35;;;;;;;;;;5045783;28;20029;-64
2022/08/19 04:59:58;;;;;;;28.70;19.20;;;;;;;;;;5031252;28;20024;-64
2022/08/19 05:02:24;;;;;;;32.57;20.87;;;;;;;;;;5049913;28;20021;-64
2022/08/19 05:04:50;;;;;;;32.97;20.40;;;;;;;;;;5049258;28;20293;-64
2022/08/19 05:07:15;;;;;;;28.65;19.00;;;;;;;;;;5049831;28;20021;-64
2022/08/19 05:09:40;;;;;;;31.23;18.80;;;;;;;;;;5049297;28;20048;-64
2022/08/19 05:12:06;;;;;;;27.30;18.93;;;;;;;;;;5049695;28;20830;-64
2022/08/19 05:14:31;;;;;;;27.75;18.70;;;;;;;;;;5047947;28;20290;-64
2022/08/19 05:16:56;;;;;;;27.75;18.63;;;;;;;;;;5049500;28;20029;-64
2022/08/19 05:24:49;;;;;;;44.67;21.15;;;;;;;;;;5049368;28;20119;-64
2022/08/19 05:27:14;;;;;;;34.30;19.70;;;;;;;;;;5049247;28;20133;-64
2022/08/19 05:29:39;;;;;;;32.90;20.57;;;;;;;;;;5048177;28;20267;-64
2022/08/19 05:32:08;;;;;;;37.33;22.53;;;;;;;;;;5047549;28;20869;-64
2022/08/19 05:34:33;;;;;;;31.88;20.55;;;;;;;;;;5041012;28;20284;-64
2022/08/19 05:36:58;;;;;;;35.10;20.58;;;;;;;;;;5046341;28;20036;-64
2022/08/19 05:39:25;;;;;;;38.05;21.42;;;;;;;;;;5048881;28;20028;-64
2022/08/19 05:41:57;;;;;;;34.70;20.92;;;;;;;;;;5048725;28;20104;-64
2022/08/19 05:44:22;;;;;;;33.10;20.30;;;;;;;;;;5046539;28;20025;-64
2022/08/19 05:46:48;;;;;;;29.83;21.42;;;;;;;;;;5048767;28;20468;-64
2022/08/19 05:49:14;;;;;;;32.72;21.45;;;;;;;;;;5047979;28;20029;-64
2022/08/19 05:51:40;;;;;;;43.10;24.58;;;;;;;;;;5049062;28;20032;-64
2022/08/19 05:54:06;;;;;;;43.03;25.55;;;;;;;;;;5048556;28;20025;-64
2022/08/19 05:56:32;;;;;;;43.33;27.10;;;;;;;;;;5048136;28;20035;-64
2022/08/19 05:58:58;;;;;;;48.80;27.60;;;;;;;;;;5047534;28;20353;-64
2022/08/19 06:01:24;;;;;;;41.05;26.50;;;;;;;;;;5045048;28;20025;-64
2022/08/19 06:03:49;;;;;;;41.05;27.25;;;;;;;;;;5047996;28;20101;-64
2022/08/19 06:06:15;;;;;;;45.90;30.07;;;;;;;;;;5049426;28;20355;-64
2022/08/19 06:08:42;;;;;;;52.35;31.90;;;;;;;;;;5049228;28;20056;-64
2022/08/19 06:11:16;;;;;;;65.40;35.55;;;;;;;;;;5048937;28;20455;-65
2022/08/19 06:13:42;;;;;;;71.75;42.05;;;;;;;;;;5047173;28;20578;-64
2022/08/19 06:16:08;;;;;;;76.90;47.25;;;;;;;;;;5051916;28;20098;-65
2022/08/19 06:18:33;;;;;;;79.83;46.30;;;;;;;;;;5053443;28;20489;-64
2022/08/19 06:20:58;;;;;;;77.13;45.20;;;;;;;;;;5053253;28;20286;-65
2022/08/19 06:23:23;;;;;;;91.53;49.35;;;;;;;;;;5052147;28;20282;-65
2022/08/19 06:25:49;;;;;;;87.18;50.20;;;;;;;;;;5052352;28;20476;-64
2022/08/19 06:28:14;;;;;;;90.17;48.97;;;;;;;;;;5052069;28;20032;-65
2022/08/19 06:30:39;;;;;;;81.83;48.57;;;;;;;;;;5048528;28;20477;-64
2022/08/19 06:33:04;;;;;;;96.65;50.88;;;;;;;;;;5052753;28;20279;-64
2022/08/19 06:35:30;;;;;;;86.47;49.63;;;;;;;;;;5050425;28;20082;-64
2022/08/19 06:37:55;;;;;;;87.35;50.15;;;;;;;;;;5050150;28;20314;-64
2022/08/19 06:40:21;;;;;;;88.82;49.50;;;;;;;;;;5053649;28;20381;-64
2022/08/19 06:42:46;;;;;;;92.30;51.08;;;;;;;;;;5053526;28;20070;-65
2022/08/19 06:45:11;;;;;;;85.18;46.85;;;;;;;;;;5051889;28;20109;-64
2022/08/19 06:47:36;;;;;;;74.43;43.47;;;;;;;;;;5053591;28;20025;-64
2022/08/19 06:50:05;;;;;;;83.15;46.50;;;;;;;;;;5053975;28;20247;-64
2022/08/19 06:52:32;;;;;;;91.38;43.70;;;;;;;;;;5053146;28;20048;-64
2022/08/19 06:54:57;;;;;;;74.63;44.28;;;;;;;;;;5051185;28;20017;-64
2022/08/19 06:57:24;;;;;;;74.93;43.58;;;;;;;;;;5066166;22;20044;-68
2022/08/19 06:59:49;;;;;;;65.55;41.90;;;;;;;;;;5033255;28;20017;-68
2022/08/19 07:02:14;;;;;;;66.03;41.90;;;;;;;;;;5052568;28;20016;-68
2022/08/19 07:04:39;;;;;;;61.53;41.03;;;;;;;;;;5053304;28;20052;-68
2022/08/19 07:07:09;;;;;;;62.40;39.13;;;;;;;;;;5049303;28;20028;-68
2022/08/19 07:09:36;;;;;;;56.80;38.83;;;;;;;;;;5042463;28;20023;-68
2022/08/19 07:12:02;;;;;;;62.13;38.25;;;;;;;;;;5045221;28;20512;-68
2022/08/19 07:14:28;;;;;;;53.95;37.17;;;;;;;;;;5032545;28;20025;-68
2022/08/19 07:16:54;;;;;;;60.60;36.60;;;;;;;;;;5051279;28;20072;-67
2022/08/19 07:19:20;;;;;;;60.45;37.60;;;;;;;;;;5049667;28;20691;-68
2022/08/19 07:21:47;;;;;;;54.50;36.78;;;;;;;;;;5050408;28;20056;-69
2022/08/19 07:24:12;;;;;;;53.08;35.50;;;;;;;;;;5052744;28;20410;-68
2022/08/19 07:26:39;;;;;;;50.30;34.25;;;;;;;;;;5033811;28;20049;-68
2022/08/19 07:29:05;;;;;;;59.50;35.83;;;;;;;;;;5046571;28;20440;-68
2022/08/19 07:31:30;;;;;;;53.30;34.08;;;;;;;;;;5049740;28;20028;-68
2022/08/19 07:33:56;;;;;;;47.28;34.83;;;;;;;;;;5050128;28;20062;-69
2022/08/19 07:36:22;;;;;;;51.28;33.65;;;;;;;;;;5045645;28;20310;-68
2022/08/19 07:38:49;;;;;;;51.22;35.15;;;;;;;;;;5046068;28;20218;-68
2022/08/19 07:41:16;;;;;;;50.60;33.33;;;;;;;;;;5049712;28;20025;-68
2022/08/19 07:43:43;;;;;;;46.60;32.28;;;;;;;;;;5052413;28;20020;-68
2022/08/19 07:46:08;;;;;;;45.20;31.45;;;;;;;;;;5052424;28;20013;-68
2022/08/19 07:48:34;;;;;;;47.63;32.17;;;;;;;;;;5052541;28;20082;-67
2022/08/19 07:51:04;;;;;;;42.33;31.57;;;;;;;;;;5052265;28;20021;-68
2022/08/19 07:53:29;;;;;;;;;;;;;;;;;;5051508;28;20275;-68
2022/08/19 07:55:54;;;;;;;50.22;32.42;;;;;;;;;;5050380;28;19913;-68
2022/08/19 07:58:20;;;;;;;45.83;30.52;;;;;;;;;;5051994;28;20032;-68
2022/08/19 08:00:47;;;;;;;47.47;34.08;;;;;;;;;;5052363;28;20075;-68
2022/08/19 08:03:13;;;;;;;52.25;34.00;;;;;;;;;;5050597;28;20021;-68
2022/08/19 08:11:05;;;;;;;56.97;31.20;;;;;;;;;;5047560;28;20040;-68
2022/08/19 08:13:32;;;;;;;49.43;31.90;;;;;;;;;;5050329;28;20021;-68
2022/08/19 08:15:58;;;;;;;46.88;31.65;;;;;;;;;;5049611;28;20021;-68
2022/08/19 08:18:24;;;;;;;52.10;32.33;;;;;;;;;;5048346;28;20388;-68
2022/08/19 08:20:49;;;;;;;54.33;33.55;;;;;;;;;;5051929;28;20040;-68
2022/08/19 08:23:28;;;;;;;46.53;31.90;;;;;;;;;;5051633;28;20013;-68
2022/08/19 08:25:54;;;;;;;53.10;31.10;;;;;;;;;;5051641;28;20028;-69
2022/08/19 08:28:20;;;;;;;45.13;28.38;;;;;;;;;;5033373;28;20024;-69
2022/08/19 08:30:47;;;;;;;49.47;31.05;;;;;;;;;;5032317;28;20507;-69
2022/08/19 08:33:12;;;;;;;51.83;33.72;;;;;;;;;;5049274;28;20021;-69
2022/08/19 08:35:39;;;;;;;48.25;32.55;;;;;;;;;;5050313;28;20023;-68
2022/08/19 08:38:04;;;;;;;51.40;33.35;;;;;;;;;;5048870;28;20025;-68
2022/08/19 08:40:42;;;;;;;51.63;32.20;;;;;;;;;;5032686;28;20032;-68
2022/08/19 08:43:17;;;;;;;58.10;32.83;;;;;;;;;;5049435;28;20016;-68
2022/08/19 08:45:46;;;;;;;52.10;33.17;;;;;;;;;;5045679;28;20033;-68
2022/08/19 08:48:17;;;;;;;51.58;33.92;;;;;;;;;;5049596;28;20021;-68
2022/08/19 08:50:45;;;;;;;62.05;37.15;;;;;;;;;;5049262;28;20112;-68
2022/08/19 08:53:14;;;;;;;61.35;34.13;;;;;;;;;;5049634;28;20515;-68
2022/08/19 08:55:40;;;;;;;50.13;33.80;;;;;;;;;;5048650;28;20488;-68
2022/08/19 08:58:09;;;;;;;61.35;35.60;;;;;;;;;;5049236;28;20037;-68
2022/08/19 09:00:38;;;;;;;52.22;33.80;;;;;;;;;;5046328;28;20027;-68
2022/08/19 09:03:09;;;;;;;60.33;34.78;;;;;;;;;;5042988;28;20024;-68
2022/08/19 09:05:50;;;;;;;58.25;35.72;;;;;;;;;;5050876;28;20024;-68
2022/08/19 09:08:19;;;;;;;59.38;34.60;;;;;;;;;;5031012;28;20027;-68
2022/08/19 09:10:48;;;;;;;53.83;32.53;;;;;;;;;;5049289;28;20029;-68
2022/08/19 09:13:23;;;;;;;57.88;34.70;;;;;;;;;;5024276;28;20021;-68
2022/08/19 09:15:52;;;;;;;50.35;32.15;;;;;;;;;;5049944;28;20485;-69
2022/08/19 09:18:18;;;;;;;49.90;33.80;;;;;;;;;;5049786;28;20036;-68
2022/08/19 09:20:43;;;;;;;59.92;35.78;;;;;;;;;;5050069;28;20048;-68
2022/08/19 09:23:10;;;;;;;57.30;35.13;;;;;;;;;;5046111;28;20057;-68
2022/08/19 09:25:35;;;;;;;54.42;36.22;;;;;;;;;;5045307;28;20032;-68
2022/08/19 09:28:03;;;;;;;54.50;30.17;;;;;;;;;;5048601;28;20385;-68
2022/08/19 09:30:30;;;;;;;59.38;34.88;;;;;;;;;;5028148;28;20275;-68
2022/08/19 09:32:55;;;;;;;51.45;36.47;;;;;;;;;;5045749;28;20103;-68
2022/08/19 09:35:21;;;;;;;66.77;37.20;;;;;;;;;;5046599;28;20111;-68
2022/08/19 09:37:47;;;;;;;58.05;34.55;;;;;;;;;;5046479;28;20288;-69
2022/08/19 09:40:12;;;;;;;54.45;35.83;;;;;;;;;;5045589;28;20021;-68
2022/08/19 09:42:38;;;;;;;59.00;36.35;;;;;;;;;;5030079;28;20031;-68
2022/08/19 09:45:04;;;;;;;59.47;36.75;;;;;;;;;;5042649;28;20025;-68
2022/08/19 09:47:29;;;;;;;59.88;36.50;;;;;;;;;;5046661;28;20025;-68
2022/08/19 09:49:54;;;;;;;51.40;32.57;;;;;;;;;;5048105;28;20021;-68
2022/08/19 09:52:20;;;;;;;41.95;27.90;;;;;;;;;;5045143;28;20766;-69
2022/08/19 09:54:45;;;;;;;49.67;30.23;;;;;;;;;;5025741;28;20049;-68
2022/08/19 09:57:10;;;;;;;53.33;33.53;;;;;;;;;;5042479;28;20029;-68
2022/08/19 09:59:36;;;;;;;52.72;33.47;;;;;;;;;;5037754;28;20152;-68
2022/08/19 10:02:01;;;;;;;53.35;30.42;;;;;;;;;;5047938;28;20017;-69
2022/08/19 10:05:47;;;;;;;52.95;31.08;;;;;;;;;;5043021;28;20044;-68
2022/08/19 10:07:11;;;;;;;45.50;29.40;;;;;;;;;;5049436;28;20500;-68
2022/08/19 10:09:37;;;;;;;41.77;24.40;;;;;;;;;;5045561;28;20033;-68
2022/08/19 10:12:03;;;;;;;40.65;25.50;;;;;;;;;;5047121;28;20031;-68
2022/08/19 10:14:29;;;;;;;38.72;23.02;;;;;;;;;;5049060;28;20037;-68
2022/08/19 10:16:54;;;;;;;33.90;20.65;;;;;;;;;;5049725;28;20031;-69
2022/08/19 10:19:21;;;;;;;31.40;21.17;;;;;;;;;;5047740;28;20033;-68
2022/08/19 10:21:46;;;;;;;33.35;20.85;;;;;;;;;;5046640;28;20074;-68
2022/08/19 10:24:11;;;;;;;42.93;22.13;;;;;;;;;;5047521;28;20017;-68
2022/08/19 10:26:41;;;;;;;27.97;18.70;;;;;;;;;;5049591;28;20021;-68
2022/08/19 10:29:06;;;;;;;42.60;21.90;;;;;;;;;;5048660;28;20017;-68
2022/08/19 10:31:32;;;;;;;28.13;17.27;;;;;;;;;;5048639;28;20035;-69
2022/08/19 10:33:58;;;;;;;28.00;18.42;;;;;;;;;;5048490;28;20484;-68
2022/08/19 10:36:28;;;;;;;21.27;15.85;;;;;;;;;;5048181;28;20036;-68
2022/08/19 10:38:56;;;;;;;22.77;14.25;;;;;;;;;;5046950;28;20017;-68
2022/08/19 10:41:23;;;;;;;25.05;14.25;;;;;;;;;;5030101;28;20025;-68
2022/08/19 10:43:54;;;;;;;23.13;15.45;;;;;;;;;;5048694;28;20108;-68
2022/08/19 10:46:19;;;;;;;29.80;20.65;;;;;;;;;;5043344;28;20017;-68
2022/08/19 10:48:44;;;;;;;38.20;21.95;;;;;;;;;;5045420;28;20083;-68
2022/08/19 10:53:55;;;;;;;37.65;18.90;;;;;;;;;;5047057;28;20055;-68
2022/08/19 10:59:04;;;;;;;29.85;17.85;;;;;;;;;;5044338;28;20524;-68
2022/08/19 11:01:31;;;;;;;30.88;16.60;;;;;;;;;;5050575;28;20018;-68
2022/08/19 11:03:57;;;;;;;22.77;14.60;;;;;;;;;;5048839;28;20111;-68
2022/08/19 11:06:22;;;;;;;25.98;15.40;;;;;;;;;;5049898;28;20540;-68
2022/08/19 11:08:48;;;;;;;24.52;15.43;;;;;;;;;;5049760;28;20060;-69
2022/08/19 11:11:13;;;;;;;25.73;16.38;;;;;;;;;;5050887;28;20025;-68
2022/08/19 11:13:39;;;;;;;22.43;15.60;;;;;;;;;;5051371;28;20492;-68
2022/08/19 11:16:07;;;;;;;21.85;15.15;;;;;;;;;;5052247;28;20100;-69
2022/08/19 11:18:33;;;;;;;25.20;15.65;;;;;;;;;;5051506;28;20029;-68
2022/08/19 11:21:06;;;;;;;22.60;14.75;;;;;;;;;;5052309;28;20020;-68
2022/08/19 11:23:31;;;;;;;25.80;16.42;;;;;;;;;;5048251;28;20078;-69
2022/08/19 11:25:57;;;;;;;38.10;16.90;;;;;;;;;;5052740;28;20021;-68
2022/08/19 11:28:22;;;;;;;22.90;15.23;;;;;;;;;;5051574;28;20496;-68
2022/08/19 11:30:48;;;;;;;24.13;15.60;;;;;;;;;;5052406;28;20033;-69
2022/08/19 11:33:13;;;;;;;24.50;16.00;;;;;;;;;;5047842;28;20029;-69
2022/08/19 11:35:39;;;;;;;31.53;15.47;;;;;;;;;;5047342;28;20029;-69
2022/08/19 11:38:04;;;;;;;26.48;15.75;;;;;;;;;;5049939;28;20386;-69
2022/08/19 11:40:29;;;;;;;20.23;13.93;;;;;;;;;;5050310;28;20009;-68
2022/08/19 11:42:55;;;;;;;26.70;15.70;;;;;;;;;;5048213;28;20025;-68
2022/08/19 11:45:20;;;;;;;25.48;14.52;;;;;;;;;;5044596;28;20032;-69
2022/08/19 11:47:46;;;;;;;22.88;13.10;;;;;;;;;;5051534;28;20029;-68
2022/08/19 11:50:12;;;;;;;19.15;11.98;;;;;;;;;;5044676;28;20488;-68
2022/08/19 11:52:38;;;;;;;18.02;10.65;;;;;;;;;;5052015;28;20497;-68
2022/08/19 11:55:03;;;;;;;29.80;13.50;;;;;;;;;;5052097;28;20108;-69
2022/08/19 11:57:29;;;;;;;15.00;11.93;;;;;;;;;;5050397;28;20031;-68
2022/08/19 11:59:54;;;;;;;27.60;11.68;;;;;;;;;;5048979;28;20032;-68
2022/08/19 12:02:19;;;;;;;22.50;12.03;;;;;;;;;;5050572;28;20100;-68
2022/08/19 12:04:44;;;;;;;27.40;13.18;;;;;;;;;;5052265;28;20029;-68
2022/08/19 12:07:10;;;;;;;18.10;10.25;;;;;;;;;;5051606;28;20020;-68
2022/08/19 12:09:35;;;;;;;21.10;11.67;;;;;;;;;;5051685;28;20036;-67
2022/08/19 12:12:02;;;;;;;26.10;11.97;;;;;;;;;;5050498;28;20247;-68
2022/08/19 12:14:27;;;;;;;23.55;12.77;;;;;;;;;;5049741;28;20067;-69
2022/08/19 12:16:53;;;;;;;15.80;10.95;;;;;;;;;;5050630;28;20025;-68
2022/08/19 12:19:18;;;;;;;15.77;11.55;;;;;;;;;;5050641;28;20017;-68
2022/08/19 12:21:43;;;;;;;20.80;11.30;;;;;;;;;;5051355;28;20407;-68
2022/08/19 12:24:09;;;;;;;30.37;12.23;;;;;;;;;;5051517;28;20013;-68
2022/08/19 12:26:34;;;;;;;20.37;10.93;;;;;;;;;;5044828;28;20025;-68
2022/08/19 12:28:59;;;;;;;13.93;9.57;;;;;;;;;;5051308;28;20643;-68
2022/08/19 12:31:25;;;;;;;14.63;10.50;;;;;;;;;;5049124;28;20345;-67
2022/08/19 12:33:52;;;;;;;13.85;9.10;;;;;;;;;;5049996;28;20041;-69
2022/08/19 12:36:17;;;;;;;14.35;9.00;;;;;;;;;;5051353;28;20092;-68
2022/08/19 12:38:43;;;;;;;18.30;9.05;;;;;;;;;;5051211;28;20128;-69
2022/08/19 12:41:10;;;;;;;12.57;8.95;;;;;;;;;;5051046;28;20014;-69
2022/08/19 12:43:37;;;;;;;14.57;8.52;;;;;;;;;;5049105;28;20531;-68
2022/08/19 12:46:03;;;;;;;11.05;7.55;;;;;;;;;;5043417;28;20032;-68
2022/08/19 12:48:29;;;;;;;13.48;6.85;;;;;;;;;;5050904;28;20028;-69
2022/08/19 12:50:54;;;;;;;18.87;8.90;;;;;;;;;;5051098;28;20100;-68
2022/08/19 12:53:19;;;;;;;10.97;7.10;;;;;;;;;;5051031;28;20464;-69
2022/08/19 12:55:44;;;;;;;10.93;8.27;;;;;;;;;;5051312;28;20032;-68
2022/08/19 12:58:10;;;;;;;9.27;6.80;;;;;;;;;;5057698;22;20040;-85
2022/08/19 13:00:35;;;;;;;14.13;7.90;;;;;;;;;;5026088;28;20493;-85
2022/08/19 13:03:00;;;;;;;15.40;9.23;;;;;;;;;;5024688;28;20061;-85
2022/08/19 13:05:28;;;;;;;14.40;8.25;;;;;;;;;;5030550;28;20350;-85
2022/08/19 13:07:57;;;;;;;24.13;7.78;;;;;;;;;;5028616;28;20021;-84
2022/08/19 13:10:24;;;;;;;17.40;8.30;;;;;;;;;;5036121;28;20083;-85
2022/08/19 13:12:50;;;;;;;11.98;7.70;;;;;;;;;;5026154;28;20496;-87
2022/08/19 13:15:19;;;;;;;13.55;7.38;;;;;;;;;;5029984;28;20024;-86
2022/08/19 13:17:45;;;;;;;14.23;7.28;;;;;;;;;;5028514;28;20063;-85
2022/08/19 13:20:10;;;;;;;14.65;8.52;;;;;;;;;;5047100;28;20040;-86
2022/08/19 13:22:38;;;;;;;14.57;8.38;;;;;;;;;;5028439;28;20029;-87
2022/08/19 13:25:05;;;;;;;11.93;7.35;;;;;;;;;;5027478;28;20108;-86
2022/08/19 13:27:30;;;;;;;18.00;6.88;;;;;;;;;;5027121;28;20029;-85
2022/08/19 13:35:23;;;;;;;14.18;8.80;;;;;;;;;;5039732;28;20040;-86
2022/08/19 13:37:48;;;;;;;18.88;8.02;;;;;;;;;;5025120;28;20025;-86
2022/08/19 13:40:18;;;;;;;14.82;7.82;;;;;;;;;;5029478;28;20025;-85
2022/08/19 13:42:46;;;;;;;13.75;8.95;;;;;;;;;;5027228;28;20376;-86
2022/08/19 13:45:11;;;;;;;12.85;8.35;;;;;;;;;;5044642;28;20014;-85
2022/08/19 13:47:42;;;;;;;11.75;6.43;;;;;;;;;;5045762;28;20036;-85
2022/08/19 13:50:07;;;;;;;13.10;7.30;;;;;;;;;;5047060;28;20090;-84
2022/08/19 13:52:33;;;;;;;15.68;7.47;;;;;;;;;;5029525;28;20056;-85
2022/08/19 13:54:58;;;;;;;19.37;7.33;;;;;;;;;;5030751;28;20086;-85
2022/08/19 13:57:23;;;;;;;11.75;6.85;;;;;;;;;;5028448;28;20386;-84
2022/08/19 13:59:48;;;;;;;13.27;6.68;;;;;;;;;;5027248;28;20776;-86
2022/08/19 14:02:14;;;;;;;10.97;5.87;;;;;;;;;;5027485;28;20024;-85
2022/08/19 14:04:39;;;;;;;12.75;6.45;;;;;;;;;;5047157;28;20021;-84
2022/08/19 14:07:05;;;;;;;11.27;6.20;;;;;;;;;;5045988;28;20094;-85
2022/08/19 14:09:30;;;;;;;11.38;5.88;;;;;;;;;;5029224;28;20021;-84
2022/08/19 14:11:55;;;;;;;8.00;6.10;;;;;;;;;;5030142;28;20025;-84
2022/08/19 14:14:21;;;;;;;12.98;5.80;;;;;;;;;;5043277;28;20045;-84
2022/08/19 14:16:46;;;;;;;10.82;5.97;;;;;;;;;;5028624;28;20041;-83
2022/08/19 14:19:11;;;;;;;7.95;5.38;;;;;;;;;;5029154;28;20012;-84
2022/08/19 14:21:37;;;;;;;8.60;4.70;;;;;;;;;;5029883;28;20067;-85
2022/08/19 14:24:02;;;;;;;9.70;4.68;;;;;;;;;;5029691;28;20515;-86
2022/08/19 14:26:27;;;;;;;13.20;5.57;;;;;;;;;;5047041;28;20491;-84
2022/08/19 14:28:54;;;;;;;11.43;5.50;;;;;;;;;;5040962;28;20040;-84
2022/08/19 14:31:19;;;;;;;17.55;5.90;;;;;;;;;;5045775;28;20294;-84
2022/08/19 14:33:46;;;;;;;7.53;5.78;;;;;;;;;;5029327;28;20033;-85
2022/08/19 14:36:11;;;;;;;10.93;6.32;;;;;;;;;;5048805;28;20024;-85
2022/08/19 14:38:36;;;;;;;11.27;5.47;;;;;;;;;;5033569;28;20025;-85
2022/08/19 14:41:07;;;;;;;8.32;5.80;;;;;;;;;;5041798;28;20264;-84